Time;durP1;ratioP1;P1;durP2;ratioP2;P2;SDS_P1;SDS_P2;PMS_P1;PMS_P2;Temp;Humidity;BMP_temperature;BMP_pressure;BME280_temperature;BME280_humidity;BME280_pressure;Samples;Min_cycle;Max_cycle;Signal;HPM_P1;HPM_P2
2021/06/28 00:01:53;;;;;;;;;;;;;;;;;;5035153;28;19913;-78
2021/06/28 00:04:19;;;;;;;;;;;;;;;;;;5033857;28;19917;-77
2021/06/28 00:06:45;;;;;;;;;;;;;;;;;;5034010;28;19924;-78
2021/06/28 00:09:11;;;;;;;;;;;;;;;;;;5032411;28;20332;-77
2021/06/28 00:11:37;;;;;;;;;;;;;;;;;;5037545;28;19975;-77
2021/06/28 00:14:03;;;;;;;;;;;;;;;;;;5032921;28;19913;-77
2021/06/28 00:16:29;;;;;;;;;;;;;;;;;;5032425;28;19913;-79
2021/06/28 00:18:57;;;;;;;;;;;;;;;;;;5028647;28;19917;-76
2021/06/28 00:21:23;;;;;;;;;;;;;;;;;;5027714;28;19919;-79
2021/06/28 00:23:49;;;;;;;;;;;;;;;;;;5032148;28;19917;-78
2021/06/28 00:26:15;;;;;;;;;;;;;;;;;;5031276;28;20359;-77
2021/06/28 00:28:41;;;;;;;;;;;;;;;;;;5033364;28;20627;-77
2021/06/28 00:31:08;;;;;;;;;;;;;;;;;;5031653;28;19920;-78
2021/06/28 00:33:34;;;;;;;;;;;;;;;;;;5031549;28;20335;-77
2021/06/28 00:36:00;;;;;;;;;;;;;;;;;;5030947;28;19917;-78
2021/06/28 00:38:26;;;;;;;;;;;;;;;;;;5032812;28;19921;-78
2021/06/28 00:40:52;;;;;;;;;;;;;;;;;;5034954;28;19913;-78
2021/06/28 00:43:18;;;;;;;;;;;;;;;;;;5032385;28;19917;-78
2021/06/28 00:45:44;;;;;;;;;;;;;;;;;;5032864;28;20446;-77
2021/06/28 00:48:09;;;;;;;;;;;;;;;;;;5032335;28;20392;-78
2021/06/28 00:50:35;;;;;;;;;;;;;;;;;;5032341;28;19917;-77
2021/06/28 00:53:01;;;;;;;;;;;;;;;;;;5027586;28;19964;-78
2021/06/28 00:55:27;;;;;;;;;;;;;;;;;;5030232;28;19922;-77
2021/06/28 00:57:53;;;;;;;;;;;;;;;;;;5046390;28;19924;-77
2021/06/28 01:00:19;;;;;;;;;;;;;;;;;;5030194;28;20316;-78
2021/06/28 01:02:45;;;;;;;;;;;;;;;;;;5029721;28;20055;-78
2021/06/28 01:05:11;;;;;;;;;;;;;;;;;;5021162;28;19913;-77
2021/06/28 01:07:37;;;;;;;;;;;;;;;;;;5026762;28;19917;-77
2021/06/28 01:10:03;;;;;;;;;;;;;;;;;;5032707;28;19920;-77
2021/06/28 01:12:29;;;;;;;;;;;;;;;;;;5031871;28;19988;-77
2021/06/28 01:14:54;;;;;;;;;;;;;;;;;;5032922;28;19913;-78
2021/06/28 01:17:20;;;;;;;;;;;;;;;;;;5032076;28;19967;-78
2021/06/28 01:19:46;;;;;;;;;;;;;;;;;;5030177;28;19928;-77
2021/06/28 01:22:12;;;;;;;;;;;;;;;;;;5029171;28;20012;-78
2021/06/28 01:24:38;;;;;;;;;;;;;;;;;;5032437;28;20363;-78
2021/06/28 01:27:06;;;;;;;;;;;;;;;;;;5032728;28;19920;-77
2021/06/28 01:29:32;;;;;;;;;;;;;;;;;;5031751;28;19914;-77
2021/06/28 01:31:58;;;;;;;;;;;;;;;;;;5028304;28;19920;-77
2021/06/28 01:34:23;;;;;;;;;;;;;;;;;;5045522;28;19916;-77
2021/06/28 01:36:49;;;;;;;;;;;;;;;;;;5023731;28;19978;-77
2021/06/28 01:39:15;;;;;;;;;;;;;;;;;;5036006;28;19924;-78
2021/06/28 01:41:41;;;;;;;;;;;;;;;;;;5030417;28;19913;-78
2021/06/28 01:44:07;;;;;;;;;;;;;;;;;;5031830;28;20426;-79
2021/06/28 01:46:33;;;;;;;;;;;;;;;;;;5031652;28;19917;-78
2021/06/28 01:48:59;;;;;;;;;;;;;;;;;;5031989;28;20482;-78
2021/06/28 01:51:25;;;;;;;;;;;;;;;;;;5031962;28;19960;-78
2021/06/28 01:53:51;;;;;;;;;;;;;;;;;;5031586;28;19919;-77
2021/06/28 01:56:16;;;;;;;;;;;;;;;;;;5025513;28;19944;-78
2021/06/28 01:58:42;;;;;;;;;;;;;;;;;;5046591;28;19917;-77
2021/06/28 02:01:08;;;;;;;;;;;;;;;;;;5046186;28;19921;-77
2021/06/28 02:03:34;;;;;;;;;;;;;;;;;;5031348;28;19917;-77
2021/06/28 02:06:00;;;;;;;;;;;;;;;;;;5031696;28;19917;-77
2021/06/28 02:08:26;;;;;;;;;;;;;;;;;;5031794;28;19917;-77
2021/06/28 02:10:52;;;;;;;;;;;;;;;;;;5031241;28;20047;-78
2021/06/28 02:13:18;;;;;;;;;;;;;;;;;;5046618;28;19920;-78
2021/06/28 02:15:43;;;;;;;;;;;;;;;;;;5028433;28;19920;-78
2021/06/28 02:18:09;;;;;;;;;;;;;;;;;;5031161;28;20887;-77
2021/06/28 02:20:35;;;;;;;;;;;;;;;;;;5029557;28;19928;-78
2021/06/28 02:23:01;;;;;;;;;;;;;;;;;;5031604;28;20011;-78
2021/06/28 02:25:27;;;;;;;;;;;;;;;;;;5034785;28;19935;-78
2021/06/28 02:27:53;;;;;;;;;;;;;;;;;;5036187;28;19914;-77
2021/06/28 02:30:19;;;;;;;;;;;;;;;;;;5030904;28;19913;-78
2021/06/28 02:32:45;;;;;;;;;;;;;;;;;;5048247;28;20345;-78
2021/06/28 02:35:11;;;;;;;;;;;;;;;;;;5031073;28;19918;-78
2021/06/28 02:37:36;;;;;;;;;;;;;;;;;;5035295;28;19924;-77
2021/06/28 02:40:02;;;;;;;;;;;;;;;;;;5031533;28;19913;-78
2021/06/28 02:42:28;;;;;;;;;;;;;;;;;;5031832;28;19976;-77
2021/06/28 02:44:54;;;;;;;;;;;;;;;;;;5030970;28;19917;-78
2021/06/28 02:47:20;;;;;;;;;;;;;;;;;;5032943;28;19987;-78
2021/06/28 02:49:46;;;;;;;;;;;;;;;;;;5030424;28;20526;-78
2021/06/28 02:52:12;;;;;;;;;;;;;;;;;;5034857;28;19914;-78
2021/06/28 02:54:38;;;;;;;;;;;;;;;;;;5028298;28;19952;-78
2021/06/28 02:57:04;;;;;;;;;;;;;;;;;;5031624;28;19917;-78
2021/06/28 02:59:30;;;;;;;;;;;;;;;;;;5035809;28;19925;-79
2021/06/28 03:01:57;;;;;;;;;;;;;;;;;;5029621;28;20479;-77
2021/06/28 03:04:23;;;;;;;;;;;;;;;;;;5035918;28;19925;-78
2021/06/28 03:06:49;;;;;;;;;;;;;;;;;;5028878;28;20011;-78
2021/06/28 03:09:15;;;;;;;;;;;;;;;;;;5033933;28;19913;-78
2021/06/28 03:11:41;;;;;;;;;;;;;;;;;;5034818;28;19919;-78
2021/06/28 03:14:07;;;;;;;;;;;;;;;;;;5027315;28;19917;-77
2021/06/28 03:16:33;;;;;;;;;;;;;;;;;;5046136;28;19914;-78
2021/06/28 03:18:59;;;;;;;;;;;;;;;;;;5028307;28;20046;-78
2021/06/28 03:21:24;;;;;;;;;;;;;;;;;;5042149;28;20372;-77
2021/06/28 03:23:50;;;;;;;;;;;;;;;;;;5034311;28;19917;-79
2021/06/28 03:26:16;;;;;;;;;;;;;;;;;;5032642;28;20295;-77
2021/06/28 03:28:42;;;;;;;;;;;;;;;;;;5033955;28;19913;-78
2021/06/28 03:31:08;;;;;;;;;;;;;;;;;;5033344;28;19913;-79
2021/06/28 03:33:34;;;;;;;;;;;;;;;;;;5028690;28;19921;-78
2021/06/28 03:36:00;;;;;;;;;;;;;;;;;;5028459;28;19943;-78
2021/06/28 03:38:26;;;;;;;;;;;;;;;;;;5032082;28;19917;-78
2021/06/28 03:40:52;;;;;;;;;;;;;;;;;;5033098;28;19916;-78
2021/06/28 03:43:17;;;;;;;;;;;;;;;;;;5031988;28;19924;-78
2021/06/28 03:45:43;;;;;;;;;;;;;;;;;;5031771;28;19913;-79
2021/06/28 03:48:09;;;;;;;;;;;;;;;;;;5031515;28;20288;-77
2021/06/28 03:50:35;;;;;;;;;;;;;;;;;;5033998;28;19959;-78
2021/06/28 03:53:01;;;;;;;;;;;;;;;;;;5030909;28;19920;-78
2021/06/28 03:55:27;;;;;;;;;;;;;;;;;;5028763;28;20410;-78
2021/06/28 03:57:53;;;;;;;;;;;;;;;;;;5031645;28;19924;-78
2021/06/28 04:00:19;;;;;;;;;;;;;;;;;;5030811;28;20396;-77
2021/06/28 04:02:45;;;;;;;;;;;;;;;;;;5032224;28;19917;-78
2021/06/28 04:05:11;;;;;;;;;;;;;;;;;;5031473;28;19924;-79
2021/06/28 04:07:37;;;;;;;;;;;;;;;;;;5031520;28;19916;-78
2021/06/28 04:10:03;;;;;;;;;;;;;;;;;;5030212;28;20381;-78
2021/06/28 04:12:29;;;;;;;;;;;;;;;;;;5032231;28;19981;-78
2021/06/28 04:14:54;;;;;;;;;;;;;;;;;;5032451;28;19921;-78
2021/06/28 04:17:20;;;;;;;;;;;;;;;;;;5033607;28;20340;-79
2021/06/28 04:19:46;;;;;;;;;;;;;;;;;;5030163;28;19919;-78
2021/06/28 04:22:12;;;;;;;;;;;;;;;;;;5029510;28;19953;-77
2021/06/28 04:24:38;;;;;;;;;;;;;;;;;;5030519;28;19966;-78
2021/06/28 04:27:04;;;;;;;;;;;;;;;;;;5030545;28;19913;-77
2021/06/28 04:29:30;;;;;;;;;;;;;;;;;;5026760;28;19933;-79
2021/06/28 04:31:56;;;;;;;;;;;;;;;;;;5024039;28;20008;-78
2021/06/28 04:34:21;;;;;;;;;;;;;;;;;;5024868;28;19909;-77
2021/06/28 04:36:47;;;;;;;;;;;;;;;;;;5026082;28;19914;-78
2021/06/28 04:39:13;;;;;;;;;;;;;;;;;;5029358;28;20349;-78
2021/06/28 04:41:39;;;;;;;;;;;;;;;;;;5027677;28;19917;-78
2021/06/28 04:44:05;;;;;;;;;;;;;;;;;;5029370;28;19917;-77
2021/06/28 04:46:31;;;;;;;;;;;;;;;;;;5031562;28;20389;-78
2021/06/28 04:48:57;;;;;;;;;;;;;;;;;;5028821;28;19920;-78
2021/06/28 04:51:23;;;;;;;;;;;;;;;;;;5031154;28;19999;-77
2021/06/28 04:53:48;;;;;;;;;;;;;;;;;;5028702;28;20007;-77
2021/06/28 04:56:14;;;;;;;;;;;;;;;;;;5026795;28;19985;-77
2021/06/28 04:58:40;;;;;;;;;;;;;;;;;;5026014;28;19925;-79
2021/06/28 05:01:06;;;;;;;;;;;;;;;;;;5038655;28;19959;-79
2021/06/28 05:03:32;;;;;;;;;;;;;;;;;;5025967;28;19925;-79
2021/06/28 05:05:58;;;;;;;;;;;;;;;;;;5028350;28;19945;-81
2021/06/28 05:08:24;;;;;;;;;;;;;;;;;;5027827;28;19921;-80
2021/06/28 05:10:50;;;;;;;;;;;;;;;;;;5028448;28;19920;-80
2021/06/28 05:13:16;;;;;;;;;;;;;;;;;;5029147;28;20006;-80
2021/06/28 05:15:42;;;;;;;;;;;;;;;;;;5026677;28;19913;-80
2021/06/28 05:18:07;;;;;;;;;;;;;;;;;;5030974;28;19916;-80
2021/06/28 05:20:33;;;;;;;;;;;;;;;;;;5026980;28;19918;-80
2021/06/28 05:22:59;;;;;;;;;;;;;;;;;;5030359;28;20008;-79
2021/06/28 05:25:25;;;;;;;;;;;;;;;;;;5027313;28;20284;-79
2021/06/28 05:27:51;;;;;;;;;;;;;;;;;;5030440;28;19913;-80
2021/06/28 05:30:18;;;;;;;;;;;;;;;;;;5030077;28;19917;-79
2021/06/28 05:32:44;;;;;;;;;;;;;;;;;;5042692;28;20020;-80
2021/06/28 05:35:10;;;;;;;;;;;;;;;;;;5029145;28;20360;-80
2021/06/28 05:37:36;;;;;;;;;;;;;;;;;;5029688;28;19964;-80
2021/06/28 05:40:02;;;;;;;;;;;;;;;;;;5018545;28;20583;-80
2021/06/28 05:42:28;;;;;;;;;;;;;;;;;;5029940;28;20442;-79
2021/06/28 05:44:54;;;;;;;;;;;;;;;;;;5022547;28;20203;-79
2021/06/28 05:47:22;;;;;;;;;;;;;;;;;;5025076;28;19913;-81
2021/06/28 05:49:48;;;;;;;;;;;;;;;;;;5029341;28;20389;-77
2021/06/28 05:52:18;;;;;;;;;;;;;;;;;;5024369;28;20046;-78
2021/06/28 05:54:44;;;;;;;;;;;;;;;;;;5023532;28;20305;-79
2021/06/28 05:57:10;;;;;;;;;;;;;;;;;;5019766;28;19928;-79
2021/06/28 05:59:36;;;;;;;;;;;;;;;;;;5020336;28;19921;-80
2021/06/28 06:02:02;;;;;;;;;;;;;;;;;;5019869;28;20253;-79
2021/06/28 06:04:28;;;;;;;;;;;;;;;;;;5034304;28;20011;-81
2021/06/28 06:06:54;;;;;;;;;;;;;;;;;;5018575;28;20013;-80
2021/06/28 06:09:20;;;;;;;;;;;;;;;;;;5026630;28;20396;-82
2021/06/28 06:11:46;;;;;;;;;;;;;;;;;;5027851;28;19917;-80
2021/06/28 06:14:12;;;;;;;;;;;;;;;;;;5025511;28;20405;-80
2021/06/28 06:16:37;;;;;;;;;;;;;;;;;;5020149;28;19946;-80
2021/06/28 06:19:03;;;;;;;;;;;;;;;;;;5021362;28;19917;-81
2021/06/28 06:21:29;;;;;;;;;;;;;;;;;;5014282;28;20030;-82
2021/06/28 06:23:55;;;;;;;;;;;;;;;;;;5021536;28;19924;-82
2021/06/28 06:26:21;;;;;;;;;;;;;;;;;;5019308;28;19927;-80
2021/06/28 06:28:47;;;;;;;;;;;;;;;;;;5023754;28;20410;-80
2021/06/28 06:31:13;;;;;;;;;;;;;;;;;;5021146;28;19924;-80
2021/06/28 06:33:39;;;;;;;;;;;;;;;;;;5019416;28;19933;-80
2021/06/28 06:36:05;;;;;;;;;;;;;;;;;;5035666;28;19960;-79
2021/06/28 06:38:30;;;;;;;;;;;;;;;;;;5022507;28;19936;-80
2021/06/28 06:40:56;;;;;;;;;;;;;;;;;;5044236;28;19917;-81
2021/06/28 06:43:22;;;;;;;;;;;;;;;;;;5022469;28;19917;-80
2021/06/28 06:45:48;;;;;;;;;;;;;;;;;;5019910;28;19964;-81
2021/06/28 06:48:14;;;;;;;;;;;;;;;;;;5016621;28;19920;-80
2021/06/28 06:50:40;;;;;;;;;;;;;;;;;;5018406;28;19925;-81
2021/06/28 06:53:06;;;;;;;;;;;;;;;;;;5017252;28;19924;-82
2021/06/28 06:55:34;;;;;;;;;;;;;;;;;;5028893;28;20036;-79
2021/06/28 06:57:59;;;;;;;;;;;;;;;;;;5018865;28;19917;-80
2021/06/28 07:00:25;;;;;;;;;;;;;;;;;;5022780;28;20546;-83
2021/06/28 07:02:52;;;;;;;;;;;;;;;;;;5038274;28;19952;-80
2021/06/28 07:05:18;;;;;;;;;;;;;;;;;;5027636;28;19928;-82
2021/06/28 07:07:44;;;;;;;;;;;;;;;;;;5025856;28;19913;-83
2021/06/28 07:10:10;;;;;;;;;;;;;;;;;;5028321;28;19992;-79
2021/06/28 07:12:36;;;;;;;;;;;;;;;;;;5031907;28;20055;-80
2021/06/28 07:15:02;;;;;;;;;;;;;;;;;;5032348;28;19920;-80
2021/06/28 07:17:28;;;;;;;;;;;;;;;;;;5032268;28;19913;-79
2021/06/28 07:19:54;;;;;;;;;;;;;;;;;;5029308;28;19913;-80
2021/06/28 07:22:20;;;;;;;;;;;;;;;;;;5035549;28;19920;-80
2021/06/28 07:24:46;;;;;;;;;;;;;;;;;;5031824;28;19971;-80
2021/06/28 07:27:11;;;;;;;;;;;;;;;;;;5047327;28;19919;-84
2021/06/28 07:29:38;;;;;;;;;;;;;;;;;;5026499;28;19961;-80
2021/06/28 07:32:04;;;;;;;;;;;;;;;;;;5028090;28;19913;-80
2021/06/28 07:34:30;;;;;;;;;;;;;;;;;;5026335;28;19967;-80
2021/06/28 07:36:55;;;;;;;;;;;;;;;;;;5026512;28;19921;-80
2021/06/28 07:39:21;;;;;;;;;;;;;;;;;;5031727;28;19913;-81
2021/06/28 07:41:49;;;;;;;;;;;;;;;;;;5028030;28;19921;-81
2021/06/28 07:44:16;;;;;;;;;;;;;;;;;;5032601;28;20012;-82
2021/06/28 07:46:42;;;;;;;;;;;;;;;;;;5031643;28;19916;-81
2021/06/28 07:49:08;;;;;;;;;;;;;;;;;;5032031;28;19966;-80
2021/06/28 07:51:36;;;;;;;;;;;;;;;;;;5030182;28;19914;-80
2021/06/28 07:54:01;;;;;;;;;;;;;;;;;;5029426;28;19936;-80
2021/06/28 07:56:27;;;;;;;;;;;;;;;;;;5027533;28;20390;-83
2021/06/28 07:58:53;;;;;;;;;;;;;;;;;;5031083;28;19917;-80
2021/06/28 08:01:19;;;;;;;;;;;;;;;;;;5027426;28;20507;-82
2021/06/28 08:03:47;;;;;;;;;;;;;;;;;;5031331;28;19924;-80
2021/06/28 08:06:13;;;;;;;;;;;;;;;;;;5030889;28;19913;-82
2021/06/28 08:08:39;;;;;;;;;;;;;;;;;;5027845;28;19922;-80
2021/06/28 08:11:07;;;;;;;;;;;;;;;;;;5036287;28;19910;-79
2021/06/28 08:13:32;;;;;;;;;;;;;;;;;;5028471;28;19920;-80
2021/06/28 08:15:58;;;;;;;;;;;;;;;;;;5032189;28;19917;-81
2021/06/28 08:18:24;;;;;;;;;;;;;;;;;;5030218;28;20384;-81
2021/06/28 08:20:50;;;;;;;;;;;;;;;;;;5029862;28;19956;-85
2021/06/28 08:23:16;;;;;;;;;;;;;;;;;;5023514;28;19921;-85
2021/06/28 08:25:42;;;;;;;;;;;;;;;;;;5030415;28;20064;-80
2021/06/28 08:28:10;;;;;;;;;;;;;;;;;;5030320;28;19917;-80
2021/06/28 08:30:36;;;;;;;;;;;;;;;;;;5030619;28;19923;-80
2021/06/28 08:33:02;;;;;;;;;;;;;;;;;;5030900;28;19996;-80
2021/06/28 08:35:28;;;;;;;;;;;;;;;;;;5031464;28;20098;-81
2021/06/28 08:37:53;;;;;;;;;;;;;;;;;;5025857;28;19913;-80
2021/06/28 08:40:19;;;;;;;;;;;;;;;;;;5029786;28;19961;-80
2021/06/28 08:42:45;;;;;;;;;;;;;;;;;;5031183;28;19921;-80
2021/06/28 08:45:11;;;;;;;;;;;;;;;;;;5031337;28;19921;-80
2021/06/28 08:47:37;;;;;;;;;;;;;;;;;;5034379;28;20416;-81
2021/06/28 08:50:03;;;;;;;;;;;;;;;;;;5047324;28;20360;-81
2021/06/28 08:52:35;;;;;;;;;;;;;;;;;;5034784;28;19921;-82
2021/06/28 08:55:01;;;;;;;;;;;;;;;;;;5050050;28;19952;-81
2021/06/28 08:57:27;;;;;;;;;;;;;;;;;;5032756;28;19917;-83
2021/06/28 08:59:53;;;;;;;;;;;;;;;;;;5037527;28;19919;-83
2021/06/28 09:02:18;;;;;;;;;;;;;;;;;;5040008;28;19967;-82
2021/06/28 09:04:44;;;;;;;;;;;;;;;;;;5032246;28;19917;-81
2021/06/28 09:07:12;;;;;;;;;;;;;;;;;;5032119;28;19909;-81
2021/06/28 09:09:38;;;;;;;;;;;;;;;;;;5031379;28;19913;-81
2021/06/28 09:12:04;;;;;;;;;;;;;;;;;;5033451;28;20004;-81
2021/06/28 09:14:30;;;;;;;;;;;;;;;;;;5029080;28;19913;-82
2021/06/28 09:16:56;;;;;;;;;;;;;;;;;;5030214;28;19913;-83
2021/06/28 09:19:22;;;;;;;;;;;;;;;;;;5030847;28;19952;-81
2021/06/28 09:21:52;;;;;;;;;;;;;;;;;;5028661;28;19920;-79
2021/06/28 09:24:18;;;;;;;;;;;;;;;;;;5029990;28;19924;-79
2021/06/28 09:26:44;;;;;;;;;;;;;;;;;;5029643;28;19913;-80
2021/06/28 09:29:10;;;;;;;;;;;;;;;;;;5030616;28;19914;-81
2021/06/28 09:31:36;;;;;;;;;;;;;;;;;;5042138;28;20510;-79
2021/06/28 09:34:02;;;;;;;;;;;;;;;;;;5026515;28;20014;-79
2021/06/28 09:36:28;;;;;;;;;;;;;;;;;;5026544;28;20394;-79
2021/06/28 09:38:54;;;;;;;;;;;;;;;;;;5027251;28;19913;-80
2021/06/28 09:41:19;;;;;;;;;;;;;;;;;;5029343;28;19952;-83
2021/06/28 09:43:45;;;;;;;;;;;;;;;;;;5028171;28;19917;-79
2021/06/28 09:46:11;;;;;;;;;;;;;;;;;;5029925;28;20387;-80
2021/06/28 09:48:39;;;;;;;;;;;;;;;;;;5028581;28;19913;-79
2021/06/28 09:51:05;;;;;;;;;;;;;;;;;;5030330;28;19914;-80
2021/06/28 09:53:31;;;;;;;;;;;;;;;;;;5032150;28;19979;-82
2021/06/28 09:55:57;;;;;;;;;;;;;;;;;;5030939;28;19964;-82
2021/06/28 09:58:25;;;;;;;;;;;;;;;;;;5029797;28;19917;-84
2021/06/28 10:00:51;;;;;;;;;;;;;;;;;;5031226;28;19913;-81
2021/06/28 10:03:16;;;;;;;;;;;;;;;;;;5030653;28;20407;-82
2021/06/28 10:05:55;;;;;;;;;;;;;;;;;;5026414;28;19914;-81
2021/06/28 10:08:22;;;;;;;;;;;;;;;;;;5031085;28;19913;-82
2021/06/28 10:10:50;;;;;;;;;;;;;;;;;;5032534;28;19913;-81
2021/06/28 10:13:16;;;;;;;;;;;;;;;;;;5029747;28;19948;-81
2021/06/28 10:15:43;;;;;;;;;;;;;;;;;;5028914;28;19951;-80
2021/06/28 10:18:09;;;;;;;;;;;;;;;;;;5028082;28;19937;-81
2021/06/28 10:20:35;;;;;;;;;;;;;;;;;;5027045;28;20423;-81
2021/06/28 10:23:01;;;;;;;;;;;;;;;;;;5029723;28;20293;-81
2021/06/28 10:25:27;;;;;;;;;;;;;;;;;;5030103;28;19983;-81
2021/06/28 10:27:52;;;;;;;;;;;;;;;;;;5025798;28;19975;-80
2021/06/28 10:30:19;;;;;;;;;;;;;;;;;;5023389;28;20284;-81
2021/06/28 10:32:44;;;;;;;;;;;;;;;;;;5027609;28;19913;-80
2021/06/28 10:35:10;;;;;;;;;;;;;;;;;;5027184;28;19920;-81
2021/06/28 10:37:36;;;;;;;;;;;;;;;;;;5024796;28;19917;-81
2021/06/28 10:40:02;;;;;;;;;;;;;;;;;;5031131;28;19921;-82
2021/06/28 10:42:29;;;;;;;;;;;;;;;;;;5029365;28;19913;-81
2021/06/28 10:44:55;;;;;;;;;;;;;;;;;;5026186;28;19975;-81
2021/06/28 10:47:20;;;;;;;;;;;;;;;;;;5030721;28;20336;-81
2021/06/28 10:49:47;;;;;;;;;;;;;;;;;;5034155;28;19917;-81
2021/06/28 10:52:13;;;;;;;;;;;;;;;;;;5033107;28;19956;-81
2021/06/28 10:54:38;;;;;;;;;;;;;;;;;;5033818;28;19945;-81
2021/06/28 10:57:04;;;;;;;;;;;;;;;;;;5029526;28;19917;-81
2021/06/28 10:59:31;;;;;;;;;;;;;;;;;;5032185;28;19917;-82
2021/06/28 11:01:56;;;;;;;;;;;;;;;;;;5030375;28;20007;-81
2021/06/28 11:04:22;;;;;;;;;;;;;;;;;;5034725;28;19999;-82
2021/06/28 11:06:48;;;;;;;;;;;;;;;;;;5030328;28;19913;-80
2021/06/28 11:09:14;;;;;;;;;;;;;;;;;;5031021;28;19913;-80
2021/06/28 11:11:40;;;;;;;;;;;;;;;;;;5028114;28;20032;-81
2021/06/28 11:14:06;;;;;;;;;;;;;;;;;;5031354;28;20576;-80
2021/06/28 11:16:32;;;;;;;;;;;;;;;;;;5034112;28;19920;-83
2021/06/28 11:18:58;;;;;;;;;;;;;;;;;;5027864;28;19921;-80
2021/06/28 11:21:23;;;;;;;;;;;;;;;;;;5035034;28;19952;-80
2021/06/28 11:23:49;;;;;;;;;;;;;;;;;;5027649;28;19917;-76
2021/06/28 11:26:15;;;;;;;;;;;;;;;;;;5027714;28;20288;-77
2021/06/28 11:28:42;;;;;;;;;;;;;;;;;;5027880;28;19913;-77
2021/06/28 11:31:08;;;;;;;;;;;;;;;;;;5030560;28;19921;-79
2021/06/28 11:33:34;;;;;;;;;;;;;;;;;;5030827;28;19928;-77
2021/06/28 11:36:01;;;;;;;;;;;;;;;;;;5033502;28;20450;-78
2021/06/28 11:38:26;;;;;;;;;;;;;;;;;;5031150;28;19973;-77
2021/06/28 11:40:52;;;;;;;;;;;;;;;;;;5028807;28;20012;-78
2021/06/28 11:43:18;;;;;;;;;;;;;;;;;;5028605;28;19963;-77
2021/06/28 11:45:44;;;;;;;;;;;;;;;;;;5028677;28;20448;-77
2021/06/28 11:48:11;;;;;;;;;;;;;;;;;;5044629;28;19955;-78
2021/06/28 11:50:37;;;;;;;;;;;;;;;;;;5028523;28;19909;-76
2021/06/28 11:53:03;;;;;;;;;;;;;;;;;;5029163;28;20399;-78
2021/06/28 11:55:29;;;;;;;;;;;;;;;;;;5031296;28;20065;-78
2021/06/28 11:57:55;;;;;;;;;;;;;;;;;;5024655;28;19921;-77
2021/06/28 12:00:21;;;;;;;;;;;;;;;;;;5028511;28;19959;-78
2021/06/28 12:02:47;;;;;;;;;;;;;;;;;;5022577;28;19913;-77
2021/06/28 12:05:13;;;;;;;;;;;;;;;;;;5026170;28;19917;-78
2021/06/28 12:07:40;;;;;;;;;;;;;;;;;;5032008;28;19913;-77
2021/06/28 12:10:06;;;;;;;;;;;;;;;;;;5031569;28;19909;-78
2021/06/28 12:12:32;;;;;;;;;;;;;;;;;;5030552;28;19928;-77
2021/06/28 12:14:59;;;;;;;;;;;;;;;;;;5029263;28;19925;-77
2021/06/28 12:17:24;;;;;;;;;;;;;;;;;;5028132;28;19913;-78
2021/06/28 12:19:50;;;;;;;;;;;;;;;;;;5027517;28;19917;-76
2021/06/28 12:22:16;;;;;;;;;;;;;;;;;;5030408;28;19997;-79
2021/06/28 12:24:42;;;;;;;;;;;;;;;;;;5031534;28;20512;-78
2021/06/28 12:27:08;;;;;;;;;;;;;;;;;;5031460;28;19913;-78
2021/06/28 12:29:34;;;;;;;;;;;;;;;;;;5029760;28;19948;-76
2021/06/28 12:32:00;;;;;;;;;;;;;;;;;;5032239;28;19940;-76
2021/06/28 12:34:26;;;;;;;;;;;;;;;;;;5032082;28;20339;-78
2021/06/28 12:36:52;;;;;;;;;;;;;;;;;;5042104;28;20292;-77
2021/06/28 12:39:18;;;;;;;;;;;;;;;;;;5028297;28;19953;-77
2021/06/28 12:41:44;;;;;;;;;;;;;;;;;;5029612;28;19913;-77
2021/06/28 12:44:09;;;;;;;;;;;;;;;;;;5032236;28;19917;-79
2021/06/28 12:46:35;;;;;;;;;;;;;;;;;;5025260;28;19967;-79
2021/06/28 12:49:01;;;;;;;;;;;;;;;;;;5030982;28;19924;-79
2021/06/28 12:51:27;;;;;;;;;;;;;;;;;;5030336;28;20000;-79
2021/06/28 12:53:53;;;;;;;;;;;;;;;;;;5033626;28;19913;-79
2021/06/28 12:56:20;;;;;;;;;;;;;;;;;;5027921;28;19913;-78
2021/06/28 12:58:47;;;;;;;;;;;;;;;;;;5030087;28;20364;-79
2021/06/28 13:01:13;;;;;;;;;;;;;;;;;;5029959;28;20284;-79
2021/06/28 13:03:39;;;;;;;;;;;;;;;;;;5023960;28;19932;-82
2021/06/28 13:06:04;;;;;;;;;;;;;;;;;;5026016;28;19971;-80
2021/06/28 13:08:30;;;;;;;;;;;;;;;;;;5035303;28;20341;-79
2021/06/28 13:10:56;;;;;;;;;;;;;;;;;;5030019;28;20443;-80
2021/06/28 13:13:23;;;;;;;;;;;;;;;;;;5027696;28;19913;-80
2021/06/28 13:16:01;;;;;;;;;;;;;;;;;;5029615;28;19921;-80
2021/06/28 13:18:27;;;;;;;;;;;;;;;;;;5031362;28;19924;-80
2021/06/28 13:20:53;;;;;;;;;;;;;;;;;;5027736;28;19921;-79
2021/06/28 13:23:19;;;;;;;;;;;;;;;;;;5028525;28;19913;-79
2021/06/28 13:25:44;;;;;;;;;;;;;;;;;;5043703;28;19913;-80
2021/06/28 13:28:11;;;;;;;;;;;;;;;;;;5029454;28;19913;-80
2021/06/28 13:30:37;;;;;;;;;;;;;;;;;;5029396;28;19917;-80
2021/06/28 13:33:02;;;;;;;;;;;;;;;;;;5026990;28;19920;-81
2021/06/28 13:35:28;;;;;;;;;;;;;;;;;;5022108;28;20443;-79
2021/06/28 13:37:54;;;;;;;;;;;;;;;;;;5044559;28;19924;-79
2021/06/28 13:40:20;;;;;;;;;;;;;;;;;;5030311;28;19920;-80
2021/06/28 13:42:46;;;;;;;;;;;;;;;;;;5028262;28;20424;-79
2021/06/28 13:45:12;;;;;;;;;;;;;;;;;;5026046;28;20519;-79
2021/06/28 13:47:38;;;;;;;;;;;;;;;;;;5026346;28;19956;-78
2021/06/28 13:50:04;;;;;;;;;;;;;;;;;;5028093;28;19955;-78
2021/06/28 13:52:33;;;;;;;;;;;;;;;;;;5029809;28;19917;-80
2021/06/28 13:54:59;;;;;;;;;;;;;;;;;;5031040;28;20000;-79
2021/06/28 13:57:24;;;;;;;;;;;;;;;;;;5033532;28;19972;-79
2021/06/28 13:59:50;;;;;;;;;;;;;;;;;;5032610;28;19917;-79
2021/06/28 14:02:16;;;;;;;;;;;;;;;;;;5030000;28;19929;-80
2021/06/28 14:04:42;;;;;;;;;;;;;;;;;;5036321;28;19951;-78
2021/06/28 14:07:08;;;;;;;;;;;;;;;;;;5033365;28;19913;-79
2021/06/28 14:09:34;;;;;;;;;;;;;;;;;;5034322;28;19920;-79
2021/06/28 14:12:00;;;;;;;;;;;;;;;;;;5032134;28;19923;-81
2021/06/28 14:14:26;;;;;;;;;;;;;;;;;;5034356;28;20007;-78
2021/06/28 14:16:52;;;;;;;;;;;;;;;;;;5032849;28;19917;-80
2021/06/28 14:19:18;;;;;;;;;;;;;;;;;;5027851;28;19928;-78
2021/06/28 14:21:43;;;;;;;;;;;;;;;;;;5037418;28;19964;-78
2021/06/28 14:24:09;;;;;;;;;;;;;;;;;;5036044;28;19917;-78
2021/06/28 14:26:35;;;;;;;;;;;;;;;;;;5039770;28;19920;-80
2021/06/28 14:29:01;;;;;;;;;;;;;;;;;;5033873;28;19917;-79
2021/06/28 14:31:27;;;;;;;;;;;;;;;;;;5030900;28;20327;-80
2021/06/28 14:33:53;;;;;;;;;;;;;;;;;;5036493;28;19921;-79
2021/06/28 14:36:19;;;;;;;;;;;;;;;;;;5032703;28;20394;-78
2021/06/28 14:38:45;;;;;;;;;;;;;;;;;;5041103;28;20346;-78
2021/06/28 14:41:11;;;;;;;;;;;;;;;;;;5036612;28;19917;-79
2021/06/28 14:43:37;;;;;;;;;;;;;;;;;;5038322;28;20277;-79
2021/06/28 14:46:03;;;;;;;;;;;;;;;;;;5031540;28;20384;-79
2021/06/28 14:48:28;;;;;;;;;;;;;;;;;;5033321;28;19921;-81
2021/06/28 14:50:54;;;;;;;;;;;;;;;;;;5028394;28;20299;-78
2021/06/28 14:53:20;;;;;;;;;;;;;;;;;;5032291;28;19947;-80
2021/06/28 14:55:47;;;;;;;;;;;;;;;;;;5026618;28;19917;-79
2021/06/28 14:58:13;;;;;;;;;;;;;;;;;;5031658;28;19932;-80
2021/06/28 15:00:39;;;;;;;;;;;;;;;;;;5033423;28;19917;-82
2021/06/28 15:03:05;;;;;;;;;;;;;;;;;;5035007;28;19913;-80
2021/06/28 15:05:30;;;;;;;;;;;;;;;;;;5031257;28;19979;-79
2021/06/28 15:07:56;;;;;;;;;;;;;;;;;;5025345;28;19945;-79
2021/06/28 15:10:22;;;;;;;;;;;;;;;;;;5036319;28;19920;-79
2021/06/28 15:12:48;;;;;;;;;;;;;;;;;;5034115;28;19913;-79
2021/06/28 15:15:15;;;;;;;;;;;;;;;;;;5025490;28;19920;-80
2021/06/28 15:17:41;;;;;;;;;;;;;;;;;;5030805;28;19913;-80
2021/06/28 15:20:07;;;;;;;;;;;;;;;;;;5030090;28;19924;-79
2021/06/28 15:22:32;;;;;;;;;;;;;;;;;;5027945;28;19913;-79
2021/06/28 15:24:58;;;;;;;;;;;;;;;;;;5031840;28;19917;-78
2021/06/28 15:27:24;;;;;;;;;;;;;;;;;;5029817;28;20022;-78
2021/06/28 15:29:50;;;;;;;;;;;;;;;;;;5032719;28;20312;-79
2021/06/28 15:32:16;;;;;;;;;;;;;;;;;;5032196;28;19925;-79
2021/06/28 15:34:42;;;;;;;;;;;;;;;;;;5034414;28;19913;-79
2021/06/28 15:37:08;;;;;;;;;;;;;;;;;;5033386;28;19924;-80
2021/06/28 15:39:34;;;;;;;;;;;;;;;;;;5033351;28;19956;-79
2021/06/28 15:42:00;;;;;;;;;;;;;;;;;;5033240;28;20332;-80
2021/06/28 15:44:26;;;;;;;;;;;;;;;;;;5029247;28;19963;-82
2021/06/28 15:46:52;;;;;;;;;;;;;;;;;;5029529;28;19992;-80
2021/06/28 15:49:18;;;;;;;;;;;;;;;;;;5024225;28;19920;-80
2021/06/28 15:51:44;;;;;;;;;;;;;;;;;;5031674;28;20304;-82
2021/06/28 15:54:10;;;;;;;;;;;;;;;;;;5031006;28;20000;-82
2021/06/28 15:56:36;;;;;;;;;;;;;;;;;;5046238;28;20153;-83
2021/06/28 15:59:02;;;;;;;;;;;;;;;;;;5028682;28;19917;-81
2021/06/28 16:01:31;;;;;;;;;;;;;;;;;;5030518;28;19936;-80
2021/06/28 16:03:57;;;;;;;;;;;;;;;;;;5028774;28;19931;-80
2021/06/28 16:06:23;;;;;;;;;;;;;;;;;;5034320;28;20008;-82
2021/06/28 16:08:50;;;;;;;;;;;;;;;;;;5028297;28;19913;-81
2021/06/28 16:11:16;;;;;;;;;;;;;;;;;;5030267;28;19956;-80
2021/06/28 16:13:47;;;;;;;;;;;;;;;;;;5030328;28;19975;-80
2021/06/28 16:16:13;;;;;;;;;;;;;;;;;;5032074;28;19921;-81
2021/06/28 16:18:39;;;;;;;;;;;;;;;;;;5029052;28;19921;-80
2021/06/28 16:21:05;;;;;;;;;;;;;;;;;;5029954;28;19909;-82
2021/06/28 16:23:32;;;;;;;;;;;;;;;;;;5029865;28;19913;-81
2021/06/28 16:25:58;;;;;;;;;;;;;;;;;;5030737;28;19913;-79
2021/06/28 16:28:24;;;;;;;;;;;;;;;;;;5028297;28;19913;-79
2021/06/28 16:30:50;;;;;;;;;;;;;;;;;;5029863;28;19983;-79
2021/06/28 16:33:16;;;;;;;;;;;;;;;;;;5027650;28;20423;-76
2021/06/28 16:35:42;;;;;;;;;;;;;;;;;;5031819;28;19921;-78
2021/06/28 16:38:08;;;;;;;;;;;;;;;;;;5032112;28;19917;-77